Sisters, OR

12:41 PM PDT on July 29, 2015 (GMT -0700)
Bradley Road, Sisters East | | Change Station
CLOSE
Current Station
Personal Weather Station
Location: Sisters, OR
Elevation: 3117 ft
Nearby Weather Stations

Elev 3117 ft 44.29 °N, 121.50 °W | Updated 0 second ago

Clear
Clear
81.3 °F
Feels Like 79 °F
N
2.0
Wind Variable Wind from NE
Gusts 5.0 mph

Today
High -- | Low -- °F
--% Chance of Precip.
Yesterday
High -- | Low -- °F
Precip. -- in
5:49 AM 8:34 PM
Waxing Gibbous, 96% visible
Pressure 30.15 in
Visibility 10.0 miles
Clouds Clear
Heat Index 79 °F
Dew Point 36 °F
Humidity 20%
Rainfall 0.00 in
Snow Depth Not available.
UV 10 out of 12
Pollen 4.40 out of 12
Air Quality Not available.
Flu Activity Not available.
METAR KRDM 291856Z 05005KT 10SM CLR 28/01 A3022 RMK AO2 SLP208 T02830011

More Conditions Fewer Conditions

Pressure 30.15 in
Visibility 10.0 miles
Clouds Clear
Heat Index 79 °F
Dew Point 36 °F
Humidity 20%
Rainfall 0.00 in
Snow Depth Not available.
UV 10 out of 12
Pollen 4.40 out of 12
Air Quality Not available.
Flu Activity Not available.
METAR KRDM 291856Z 05005KT 10SM CLR 28/01 A3022 RMK AO2 SLP208 T02830011

More Conditions Fewer Conditions

10-Day Weather Forecast

×

Almanac

Astronomy

Jul. 29, 2015 Rise Set
Actual Time
Civil Twilight
Nautical Twilight
Astronomical Twilight
Moon
Length of Visible Light
Length of Day
Tomorrow will be .
, % of the Moon is Illuminated

Today's Extremes

State Highs State Lows

Community

WunderPhotos

Upload Photos

1,842,156 photos uploaded!

WunderBlogs® & News

Nearby

Air Quality

  Air Quality AQ Index Pollutant
Not available.

Snow Depth

Station Depth Elevation

Earthquake Activity

City Distance Mag. Time & Date
Minimum magnitude displayed is 2.5.

Coastal Water Temperatures

Place Temperature

Stations

Nearby Weather Stations

Station Location Temp. Windchill Dew Point Humidity Wind Precip. Elev Updated Type